createdAt,value
2017-09-07T00:00:17.824Z,11.27
2017-09-07T00:01:27.776Z,11.31
2017-09-07T00:02:38.041Z,11.27
2017-09-07T00:03:48.305Z,11.31
2017-09-07T00:04:58.255Z,11.31
2017-09-07T00:06:08.207Z,11.34
2017-09-07T00:07:18.473Z,11.25
2017-09-07T00:08:28.752Z,11.31
2017-09-07T00:09:38.695Z,11.26
2017-09-07T00:10:48.653Z,11.25
2017-09-07T00:11:58.924Z,11.26
2017-09-07T00:13:09.187Z,11.2
2017-09-07T00:14:19.456Z,11.26
2017-09-07T00:15:29.723Z,11.3
2017-09-07T00:16:39.998Z,11.26
2017-09-07T00:17:50.272Z,11.31
2017-09-07T00:19:00.214Z,11.31
2017-09-07T00:20:10.478Z,11.27
2017-09-07T00:21:20.747Z,11.26
2017-09-07T00:22:31.051Z,11.27
2017-09-07T00:23:41.320Z,11.2
2017-09-07T00:24:51.588Z,11.1
2017-09-07T00:26:00.912Z,11.16
2017-09-07T00:27:11.176Z,11.15
2017-09-07T00:28:21.441Z,11.15
2017-09-07T00:29:31.709Z,11.13
2017-09-07T00:30:41.657Z,11.1
2017-09-07T00:31:51.604Z,11.05
2017-09-07T00:33:01.873Z,10.95
2017-09-07T00:34:12.135Z,10.97
2017-09-07T00:35:22.401Z,10.94
2017-09-07T00:36:32.668Z,10.9
2017-09-07T00:37:42.932Z,10.9
2017-09-07T00:38:52.557Z,10.87
2017-09-07T00:40:02.504Z,10.9
2017-09-07T00:41:12.771Z,10.9
2017-09-07T00:42:22.715Z,10.87
2017-09-07T00:43:32.660Z,10.83
2017-09-07T00:44:42.924Z,10.72
2017-09-07T00:45:52.872Z,10.72
2017-09-07T00:47:02.495Z,10.72
2017-09-07T00:48:12.437Z,10.75
2017-09-07T00:49:22.389Z,10.69
2017-09-07T00:50:32.664Z,10.71
2017-09-07T00:51:42.930Z,10.58
2017-09-07T00:52:52.903Z,10.61
2017-09-07T00:54:03.167Z,10.61
2017-09-07T00:55:13.431Z,10.57
2017-09-07T00:56:23.702Z,10.53
2017-09-07T00:57:33.969Z,10.53
2017-09-07T00:58:44.238Z,10.53
2017-09-07T00:59:54.182Z,10.53
2017-09-07T01:01:04.483Z,10.55
2017-09-07T01:02:14.750Z,10.51
2017-09-07T01:03:24.371Z,10.48
2017-09-07T01:04:34.634Z,10.49
2017-09-07T01:05:44.581Z,10.49
2017-09-07T01:06:54.850Z,10.45
2017-09-07T01:08:04.475Z,10.48
2017-09-07T01:09:14.745Z,10.33
2017-09-07T01:10:24.691Z,10.38
2017-09-07T01:11:34.954Z,10.36
2017-09-07T01:12:44.896Z,10.39
2017-09-07T01:13:54.841Z,10.39
2017-09-07T01:15:04.788Z,10.38
2017-09-07T01:16:15.063Z,10.45
2017-09-07T01:17:25.007Z,10.38
2017-09-07T01:18:35.274Z,10.41
2017-09-07T01:19:45.537Z,10.36
2017-09-07T01:20:55.489Z,10.36
2017-09-07T01:22:05.432Z,10.39
2017-09-07T01:23:14.734Z,10.36
2017-09-07T01:24:25.006Z,10.33
2017-09-07T01:25:35.273Z,10.34
2017-09-07T01:26:45.537Z,10.23
2017-09-07T01:27:55.479Z,10.28
2017-09-07T01:29:05.744Z,10.21
2017-09-07T01:30:16.010Z,10.21
2017-09-07T01:31:25.653Z,10.21
2017-09-07T01:32:35.601Z,10.23
2017-09-07T01:33:45.868Z,10.31
2017-09-07T01:34:55.809Z,10.23
2017-09-07T01:36:06.079Z,10.21
2017-09-07T01:37:16.381Z,10.13
2017-09-07T01:38:26.642Z,10.17
2017-09-07T01:39:35.941Z,10.17
2017-09-07T01:40:46.207Z,10.1
2017-09-07T01:41:56.154Z,10.18
2017-09-07T01:43:06.096Z,10.15
2017-09-07T01:44:16.038Z,10.18
2017-09-07T01:45:25.979Z,10.15
2017-09-07T01:46:36.244Z,10.13
2017-09-07T01:47:46.543Z,10.1
2017-09-07T01:48:56.809Z,10.1
2017-09-07T01:50:06.752Z,10.17
2017-09-07T01:51:16.696Z,10.02
2017-09-07T01:52:26.980Z,10.15
2017-09-07T01:53:36.925Z,10.06
2017-09-07T01:54:47.193Z,10.1
2017-09-07T01:55:57.463Z,10.15
2017-09-07T01:57:07.412Z,10.06
2017-09-07T01:58:17.679Z,10
2017-09-07T01:59:27.623Z,9.99
2017-09-07T02:00:37.891Z,10
2017-09-07T02:01:48.157Z,10.03
2017-09-07T02:02:58.424Z,9.99
2017-09-07T02:04:08.688Z,10.12
2017-09-07T02:05:18.631Z,10.1
2017-09-07T02:06:28.898Z,10.2
2017-09-07T02:07:38.519Z,10.15
2017-09-07T02:08:48.463Z,10.12
2017-09-07T02:09:58.404Z,10.17
2017-09-07T02:11:08.028Z,10.15
2017-09-07T02:12:18.299Z,10.25
2017-09-07T02:13:28.244Z,10.24
2017-09-07T02:14:38.220Z,10.25
2017-09-07T02:15:48.164Z,10.38
2017-09-07T02:16:58.104Z,10.38
2017-09-07T02:18:08.369Z,10.41
2017-09-07T02:19:18.641Z,10.38
2017-09-07T02:20:28.907Z,10.38
2017-09-07T02:21:38.536Z,10.34
2017-09-07T02:22:48.478Z,10.38
2017-09-07T02:23:58.422Z,10.34
2017-09-07T02:25:08.372Z,10.3
2017-09-07T02:26:18.638Z,10.38
2017-09-07T02:27:28.903Z,10.38
2017-09-07T02:28:39.169Z,10.39
2017-09-07T02:29:48.470Z,10.39
2017-09-07T02:30:58.735Z,10.42
2017-09-07T02:32:08.681Z,10.42
2017-09-07T02:33:18.952Z,10.34
2017-09-07T02:34:28.972Z,10.41
2017-09-07T02:35:38.730Z,10.45
2017-09-07T02:36:48.494Z,10.51
2017-09-07T02:37:58.915Z,10.53
2017-09-07T02:39:09.005Z,10.58
2017-09-07T02:40:19.091Z,10.59
2017-09-07T02:41:29.182Z,10.57
2017-09-07T02:42:38.933Z,10.65
2017-09-07T02:43:48.694Z,10.51
2017-09-07T02:44:58.786Z,10.62
2017-09-07T02:46:08.888Z,10.61
2017-09-07T02:47:19.309Z,10.61
2017-09-07T02:48:29.398Z,10.65
2017-09-07T02:49:39.817Z,10.57
2017-09-07T02:50:50.242Z,10.55
2017-09-07T02:52:00.663Z,10.57
2017-09-07T02:53:10.755Z,10.49
2017-09-07T02:54:20.845Z,10.49
2017-09-07T02:55:30.930Z,10.62
2017-09-07T02:56:41.347Z,10.61
2017-09-07T02:57:51.376Z,10.59
2017-09-07T02:59:01.323Z,10.55
2017-09-07T03:00:10.948Z,10.53
2017-09-07T03:01:20.571Z,10.48
2017-09-07T03:02:30.837Z,10.45
2017-09-07T03:03:40.786Z,10.45
2017-09-07T03:04:51.052Z,10.36
2017-09-07T03:06:00.674Z,10.33
2017-09-07T03:07:10.957Z,10.42
2017-09-07T03:08:21.225Z,10.33
2017-09-07T03:09:31.169Z,10.25
2017-09-07T03:10:41.187Z,10.25
2017-09-07T03:11:51.133Z,10.3
2017-09-07T03:13:01.085Z,10.21
2017-09-07T03:14:11.032Z,10.2
2017-09-07T03:15:20.658Z,10.2
2017-09-07T03:16:30.282Z,10.2
2017-09-07T03:17:40.548Z,10.2
2017-09-07T03:18:50.816Z,10.17
2017-09-07T03:20:01.089Z,10.13
2017-09-07T03:21:11.365Z,10.06
2017-09-07T03:22:21.347Z,10.03
2017-09-07T03:23:31.291Z,9.99
2017-09-07T03:24:41.553Z,10.07
2017-09-07T03:25:51.819Z,9.94
2017-09-07T03:27:01.441Z,9.99
2017-09-07T03:28:11.429Z,9.95
2017-09-07T03:29:21.374Z,9.95
2017-09-07T03:30:31.639Z,9.92
2017-09-07T03:31:41.923Z,9.91
2017-09-07T03:32:52.195Z,9.92
2017-09-07T03:34:02.460Z,10
2017-09-07T03:35:12.724Z,9.92
2017-09-07T03:36:22.346Z,9.97
2017-09-07T03:37:32.614Z,9.94
2017-09-07T03:38:42.593Z,9.99
2017-09-07T03:39:52.544Z,10.05
2017-09-07T03:41:02.485Z,9.94
2017-09-07T03:42:12.432Z,9.91
2017-09-07T03:43:22.377Z,9.97
2017-09-07T03:44:32.008Z,9.88
2017-09-07T03:45:42.271Z,9.94
2017-09-07T03:46:52.215Z,9.95
2017-09-07T03:48:02.488Z,9.97
2017-09-07T03:49:12.751Z,9.95
2017-09-07T03:50:23.020Z,9.95
2017-09-07T03:51:32.970Z,9.99
2017-09-07T03:52:42.915Z,9.94
2017-09-07T03:53:53.177Z,9.94
2017-09-07T03:55:03.122Z,9.97
2017-09-07T03:56:13.388Z,9.92
2017-09-07T03:57:23.333Z,9.97
2017-09-07T03:58:33.279Z,9.97
2017-09-07T03:59:43.541Z,9.92
2017-09-07T04:00:53.805Z,9.92
2017-09-07T04:02:03.759Z,9.91
2017-09-07T04:03:14.033Z,9.94
2017-09-07T04:04:23.980Z,9.95
2017-09-07T04:05:34.247Z,10
2017-09-07T04:06:44.511Z,9.94
2017-09-07T04:07:54.458Z,9.97
2017-09-07T04:09:04.412Z,10.06
2017-09-07T04:10:14.359Z,10.03
2017-09-07T04:11:24.623Z,10
2017-09-07T04:12:34.890Z,10.03
2017-09-07T04:13:44.840Z,9.95
2017-09-07T04:14:54.143Z,10
2017-09-07T04:16:04.086Z,10.05
2017-09-07T04:17:13.710Z,9.99
2017-09-07T04:18:23.976Z,10.03
2017-09-07T04:19:34.242Z,10.05
2017-09-07T04:20:44.510Z,10
2017-09-07T04:21:54.777Z,9.99
2017-09-07T04:23:05.042Z,10.13
2017-09-07T04:24:14.986Z,10.09
2017-09-07T04:25:24.936Z,10.2
2017-09-07T04:26:34.559Z,10.2
2017-09-07T04:27:44.828Z,10.15
2017-09-07T04:28:55.097Z,10.21
2017-09-07T04:30:05.364Z,10.21
2017-09-07T04:31:15.630Z,10.24
2017-09-07T04:32:25.896Z,10.23
2017-09-07T04:33:35.842Z,10.23
2017-09-07T04:34:45.784Z,10.25
2017-09-07T04:35:56.059Z,10.23
2017-09-07T04:37:06.009Z,10.24
2017-09-07T04:38:16.269Z,10.34
2017-09-07T04:39:26.221Z,10.33
2017-09-07T04:40:36.176Z,10.39
2017-09-07T04:41:46.124Z,10.41
2017-09-07T04:42:56.397Z,10.41
2017-09-07T04:44:06.344Z,10.38
2017-09-07T04:45:16.290Z,10.33
2017-09-07T04:46:26.233Z,10.46
2017-09-07T04:47:36.175Z,10.45
2017-09-07T04:48:46.595Z,10.48
2017-09-07T04:49:56.878Z,10.39
2017-09-07T04:51:06.828Z,10.51
2017-09-07T04:52:17.103Z,10.51
2017-09-07T04:53:27.366Z,10.59
2017-09-07T04:54:37.309Z,10.59
2017-09-07T04:55:47.256Z,10.53
2017-09-07T04:56:57.526Z,10.55
2017-09-07T04:58:07.470Z,10.62
2017-09-07T04:59:17.746Z,10.61
2017-09-07T05:00:28.016Z,10.62
2017-09-07T05:01:38.293Z,10.64
2017-09-07T05:02:48.237Z,10.59
2017-09-07T05:03:57.861Z,10.59
2017-09-07T05:05:07.484Z,10.65
2017-09-07T05:06:17.755Z,10.65
2017-09-07T05:07:28.023Z,10.69
2017-09-07T05:08:38.296Z,10.68
2017-09-07T05:09:48.241Z,10.75
2017-09-07T05:10:57.861Z,10.76
2017-09-07T05:12:10.131Z,10.68
2017-09-07T05:13:20.414Z,10.76
2017-09-07T05:14:30.678Z,10.82
2017-09-07T05:15:40.946Z,10.8
2017-09-07T05:16:50.891Z,10.75
2017-09-07T05:18:00.515Z,10.68
2017-09-07T05:19:10.780Z,10.83
2017-09-07T05:20:21.045Z,10.82
2017-09-07T05:21:31.322Z,10.83
2017-09-07T05:22:41.266Z,10.97
2017-09-07T05:23:51.211Z,10.86
2017-09-07T05:25:01.477Z,10.9
2017-09-07T05:26:11.428Z,10.89
2017-09-07T05:27:21.694Z,10.98
2017-09-07T05:28:31.664Z,11.02
2017-09-07T05:29:41.287Z,11.04
2017-09-07T05:30:50.589Z,11.04
2017-09-07T05:32:00.533Z,11.12
2017-09-07T05:33:10.154Z,11.07
2017-09-07T05:34:20.101Z,11.05
2017-09-07T05:35:30.369Z,11.07
2017-09-07T05:36:40.637Z,11.15
2017-09-07T05:37:50.259Z,11.12
2017-09-07T05:39:00.206Z,11.18
2017-09-07T05:40:10.498Z,11.2
2017-09-07T05:41:20.765Z,11.27
2017-09-07T05:42:30.735Z,11.27
2017-09-07T05:43:41.003Z,11.25
2017-09-07T05:44:50.950Z,11.23
2017-09-07T05:46:01.225Z,11.34
2017-09-07T05:47:11.494Z,11.35
2017-09-07T05:48:21.801Z,11.4
2017-09-07T05:49:31.104Z,11.43
2017-09-07T05:50:41.375Z,11.44
2017-09-07T05:51:50.357Z,11.4
2017-09-07T05:53:00.561Z,11.45
2017-09-07T05:54:10.834Z,11.51
2017-09-07T05:55:20.779Z,11.52
2017-09-07T05:56:31.045Z,11.43
2017-09-07T05:57:40.991Z,11.49
2017-09-07T05:58:51.254Z,11.45
2017-09-07T06:00:01.206Z,11.56
2017-09-07T06:01:11.151Z,11.45
2017-09-07T06:02:21.418Z,11.43
2017-09-07T06:03:31.055Z,11.49
2017-09-07T06:04:41.326Z,11.4
2017-09-07T06:05:51.272Z,11.53
2017-09-07T06:07:01.546Z,11.4
2017-09-07T06:08:11.174Z,11.51
2017-09-07T06:09:21.442Z,11.41
2017-09-07T06:10:31.714Z,11.52
2017-09-07T06:11:41.977Z,11.44
2017-09-07T06:12:51.924Z,11.44
2017-09-07T06:14:02.190Z,11.4
2017-09-07T06:15:12.145Z,11.49
2017-09-07T06:16:21.767Z,11.51
2017-09-07T06:17:32.036Z,11.49
2017-09-07T06:18:41.993Z,11.53
2017-09-07T06:19:51.617Z,11.48
2017-09-07T06:21:01.562Z,11.49
2017-09-07T06:22:11.506Z,11.48
2017-09-07T06:23:21.455Z,11.45
2017-09-07T06:24:31.400Z,11.51
2017-09-07T06:25:41.666Z,11.55
2017-09-07T06:26:51.613Z,11.48
2017-09-07T06:28:01.879Z,11.53
2017-09-07T06:29:12.162Z,11.55
2017-09-07T06:30:22.429Z,11.58
2017-09-07T06:31:32.697Z,11.65
2017-09-07T06:32:42.970Z,11.58
2017-09-07T06:33:52.916Z,11.62
2017-09-07T06:35:03.179Z,11.6
2017-09-07T06:36:12.487Z,11.63
2017-09-07T06:37:22.754Z,11.71
2017-09-07T06:38:33.021Z,11.63
2017-09-07T06:39:43.286Z,11.7
2017-09-07T06:40:52.911Z,11.74
2017-09-07T06:42:03.177Z,11.71
2017-09-07T06:43:13.126Z,11.68
2017-09-07T06:44:23.397Z,11.76
2017-09-07T06:45:33.393Z,11.83
2017-09-07T06:46:43.657Z,11.85
2017-09-07T06:47:53.604Z,11.86
2017-09-07T06:49:03.877Z,11.91
2017-09-07T06:50:14.143Z,11.77
2017-09-07T06:51:24.412Z,11.83
2017-09-07T06:52:34.037Z,11.86
2017-09-07T06:53:43.660Z,11.95
2017-09-07T06:54:53.945Z,11.86
2017-09-07T06:56:04.217Z,11.85
2017-09-07T06:57:14.486Z,11.85
2017-09-07T06:58:24.432Z,11.95
2017-09-07T06:59:34.069Z,11.81
2017-09-07T07:00:44.021Z,11.89
2017-09-07T07:01:54.286Z,11.95
2017-09-07T07:03:04.235Z,11.89
2017-09-07T07:04:14.185Z,11.97
2017-09-07T07:05:24.459Z,11.95
2017-09-07T07:06:34.726Z,11.95
2017-09-07T07:07:44.674Z,11.95
2017-09-07T07:08:54.941Z,11.99
2017-09-07T07:10:05.210Z,12
2017-09-07T07:11:15.159Z,11.97
2017-09-07T07:12:25.436Z,11.95
2017-09-07T07:13:35.386Z,12.12
2017-09-07T07:14:47.338Z,12.1
2017-09-07T07:15:57.606Z,12.21
2017-09-07T07:17:07.237Z,12.21
2017-09-07T07:18:17.507Z,12.25
2017-09-07T07:19:27.783Z,12.2
2017-09-07T07:20:38.050Z,12.3
2017-09-07T07:21:48.314Z,12.28
2017-09-07T07:22:58.259Z,12.33
2017-09-07T07:24:08.530Z,12.32
2017-09-07T07:25:18.804Z,12.33
2017-09-07T07:26:29.071Z,12.37
2017-09-07T07:27:39.340Z,12.43
2017-09-07T07:28:48.815Z,12.5
2017-09-07T07:29:59.082Z,12.53
2017-09-07T07:31:09.352Z,12.47
2017-09-07T07:32:19.627Z,12.5
2017-09-07T07:33:29.573Z,12.54
2017-09-07T07:34:39.520Z,12.5
2017-09-07T07:35:49.473Z,12.65
2017-09-07T07:36:59.418Z,12.61
2017-09-07T07:38:09.364Z,12.61
2017-09-07T07:39:19.314Z,12.61
2017-09-07T07:40:29.584Z,12.61
2017-09-07T07:41:39.534Z,12.61
2017-09-07T07:42:49.480Z,12.65
2017-09-07T07:43:59.479Z,12.68
2017-09-07T07:45:09.428Z,12.62
2017-09-07T07:46:19.695Z,12.69
2017-09-07T07:47:29.644Z,12.65
2017-09-07T07:48:39.591Z,12.8
2017-09-07T07:49:49.541Z,12.86
2017-09-07T07:50:59.169Z,12.78
2017-09-07T07:52:08.797Z,12.88
2017-09-07T07:53:18.748Z,12.88
2017-09-07T07:54:29.020Z,13.03
2017-09-07T07:55:38.970Z,12.99
2017-09-07T07:56:48.918Z,12.93
2017-09-07T07:57:59.186Z,13.01
2017-09-07T07:59:09.132Z,13.06
2017-09-07T08:00:19.399Z,13.05
2017-09-07T08:01:29.035Z,13.11
2017-09-07T08:02:39.310Z,13.17
2017-09-07T08:03:49.256Z,13.17
2017-09-07T08:04:59.211Z,13.17
2017-09-07T08:06:09.480Z,13.17
2017-09-07T08:07:19.436Z,13.21
2017-09-07T08:08:29.741Z,13.21
2017-09-07T08:09:39.685Z,13.31
2017-09-07T08:10:49.639Z,13.28
2017-09-07T08:11:59.918Z,13.33
2017-09-07T08:13:10.197Z,13.27
2017-09-07T08:14:20.149Z,13.36
2017-09-07T08:15:30.420Z,13.43
2017-09-07T08:16:40.391Z,13.49
2017-09-07T08:17:50.351Z,13.42
2017-09-07T08:19:00.621Z,13.57
2017-09-07T08:20:10.570Z,13.54
2017-09-07T08:21:20.514Z,13.61
2017-09-07T08:22:30.475Z,13.61
2017-09-07T08:23:40.745Z,13.62
2017-09-07T08:24:50.371Z,13.67
2017-09-07T08:26:00.318Z,13.67
2017-09-07T08:27:10.268Z,13.68
2017-09-07T08:28:20.538Z,13.7
2017-09-07T08:29:30.813Z,13.64
2017-09-07T08:30:41.079Z,13.73
2017-09-07T08:31:50.704Z,13.7
2017-09-07T08:33:00.975Z,13.78
2017-09-07T08:34:10.925Z,13.85
2017-09-07T08:35:20.875Z,13.93
2017-09-07T08:36:30.843Z,13.8
2017-09-07T08:37:41.114Z,13.86
2017-09-07T08:38:50.737Z,13.94
2017-09-07T08:40:00.687Z,13.87
2017-09-07T08:41:10.635Z,13.95
2017-09-07T08:42:20.590Z,13.97
2017-09-07T08:43:30.539Z,13.98
2017-09-07T08:44:40.164Z,14.12
2017-09-07T08:45:50.438Z,14.11
2017-09-07T08:47:00.385Z,14.12
2017-09-07T08:48:10.341Z,14.15
2017-09-07T08:49:20.609Z,14.18
2017-09-07T08:50:30.571Z,14.15
2017-09-07T08:51:40.198Z,14.23
2017-09-07T08:52:50.476Z,14.3
2017-09-07T08:54:00.130Z,14.26
2017-09-07T08:55:09.758Z,14.26
2017-09-07T08:56:20.032Z,14.3
2017-09-07T08:57:30.309Z,14.28
2017-09-07T08:58:40.257Z,14.28
2017-09-07T08:59:50.202Z,14.25
2017-09-07T09:01:00.480Z,14.31
2017-09-07T09:02:10.430Z,14.25
2017-09-07T09:03:20.383Z,14.26
2017-09-07T09:04:30.362Z,14.18
2017-09-07T09:05:40.317Z,14.2
2017-09-07T09:06:49.942Z,14.13
2017-09-07T09:07:59.568Z,14.12
2017-09-07T09:09:09.520Z,14.13
2017-09-07T09:10:19.476Z,13.91
2017-09-07T09:11:29.752Z,13.73
2017-09-07T09:12:39.700Z,13.62
2017-09-07T09:13:49.974Z,13.65
2017-09-07T09:15:00.257Z,13.65
2017-09-07T09:16:10.205Z,13.55
2017-09-07T09:17:20.154Z,13.55
2017-09-07T09:18:29.808Z,13.43
2017-09-07T09:19:40.096Z,13.36
2017-09-07T09:20:49.726Z,13.3
2017-09-07T09:21:59.678Z,13.09
2017-09-07T09:23:09.659Z,13.16
2017-09-07T09:24:19.607Z,13.23
2017-09-07T09:25:29.872Z,13.01
2017-09-07T09:26:40.144Z,13.05
2017-09-07T09:27:50.098Z,12.93
2017-09-07T09:29:00.048Z,12.99
2017-09-07T09:30:09.677Z,13.08
2017-09-07T09:31:19.312Z,13.01
2017-09-07T09:32:29.264Z,13.03
2017-09-07T09:33:39.538Z,13.13
2017-09-07T09:34:49.812Z,13.2
2017-09-07T09:36:00.120Z,13.24
2017-09-07T09:37:10.070Z,13.24
2017-09-07T09:38:20.342Z,13.36
2017-09-07T09:39:30.631Z,13.54
2017-09-07T09:40:40.584Z,13.55
2017-09-07T09:41:50.858Z,13.64
2017-09-07T09:43:00.488Z,13.68
2017-09-07T09:44:10.128Z,13.65
2017-09-07T09:45:20.076Z,13.7
2017-09-07T09:46:30.026Z,13.73
2017-09-07T09:47:39.980Z,13.8
2017-09-07T09:48:49.608Z,13.82
2017-09-07T09:49:59.559Z,13.79
2017-09-07T09:51:09.544Z,13.82
2017-09-07T09:52:18.851Z,13.87
2017-09-07T09:53:28.802Z,13.97
2017-09-07T09:54:38.752Z,13.97
2017-09-07T09:55:48.738Z,13.87
2017-09-07T09:56:58.368Z,13.86
2017-09-07T09:58:08.637Z,13.85
2017-09-07T09:59:18.907Z,14
2017-09-07T10:00:29.192Z,13.98
2017-09-07T10:01:38.819Z,13.85
2017-09-07T10:02:48.769Z,13.83
2017-09-07T10:03:58.718Z,13.91
2017-09-07T10:05:08.666Z,13.95
2017-09-07T10:06:18.947Z,13.79
2017-09-07T10:07:28.898Z,13.85
2017-09-07T10:08:38.847Z,13.86
2017-09-07T10:09:49.116Z,13.91
2017-09-07T10:10:59.398Z,13.94
2017-09-07T10:12:09.669Z,13.86
2017-09-07T10:13:19.939Z,13.89
2017-09-07T10:14:29.898Z,13.86
2017-09-07T10:15:38.884Z,13.62
2017-09-07T10:16:48.833Z,13.67
2017-09-07T10:17:59.121Z,13.5
2017-09-07T10:19:09.391Z,13.55
2017-09-07T10:20:19.662Z,13.64
2017-09-07T10:21:29.932Z,13.6
2017-09-07T10:22:39.559Z,13.61
2017-09-07T10:23:49.834Z,13.62
2017-09-07T10:25:00.113Z,13.6
2017-09-07T10:26:10.065Z,13.62
2017-09-07T10:27:20.336Z,13.64
2017-09-07T10:28:30.613Z,13.61
2017-09-07T10:29:40.242Z,13.67
2017-09-07T10:30:50.513Z,13.75
2017-09-07T10:32:00.791Z,13.68
2017-09-07T10:33:10.951Z,13.76
2017-09-07T10:34:21.228Z,13.71
2017-09-07T10:35:31.501Z,13.78
2017-09-07T10:36:41.453Z,13.75
2017-09-07T10:37:51.085Z,13.76
2017-09-07T10:39:01.043Z,13.76
2017-09-07T10:40:11.310Z,13.83
2017-09-07T10:41:21.258Z,13.82
2017-09-07T10:42:31.218Z,13.8
2017-09-07T10:43:40.525Z,13.87
2017-09-07T10:44:50.475Z,13.86
2017-09-07T10:46:00.744Z,13.76
2017-09-07T10:47:10.371Z,13.75
2017-09-07T10:48:20.639Z,13.8
2017-09-07T10:49:30.906Z,13.8
2017-09-07T10:50:41.178Z,13.93
2017-09-07T10:51:51.148Z,13.68
2017-09-07T10:53:00.775Z,13.68
2017-09-07T10:54:10.404Z,13.75
2017-09-07T10:55:20.672Z,13.58
2017-09-07T10:56:30.951Z,13.62
2017-09-07T10:57:40.903Z,13.67
2017-09-07T10:58:50.538Z,13.73
2017-09-07T11:00:00.483Z,13.76
2017-09-07T11:01:10.434Z,13.73
2017-09-07T11:02:20.729Z,13.82
2017-09-07T11:03:31.005Z,13.78
2017-09-07T11:04:41.276Z,13.73
2017-09-07T11:05:50.901Z,13.73
2017-09-07T11:07:01.171Z,13.62
2017-09-07T11:08:11.442Z,13.5
2017-09-07T11:09:21.389Z,13.52
2017-09-07T11:10:31.658Z,13.5
2017-09-07T11:11:41.643Z,13.5
2017-09-07T11:12:51.591Z,13.52
2017-09-07T11:14:01.698Z,13.52
2017-09-07T11:15:11.333Z,13.57
2017-09-07T11:16:20.961Z,13.57
2017-09-07T11:17:30.592Z,13.6
2017-09-07T11:18:40.592Z,13.67
2017-09-07T11:19:50.865Z,13.64
2017-09-07T11:21:00.509Z,13.67
2017-09-07T11:22:10.455Z,13.76
2017-09-07T11:23:20.728Z,13.78
2017-09-07T11:24:30.356Z,13.91
2017-09-07T11:25:40.637Z,13.93
2017-09-07T11:26:50.261Z,13.79
2017-09-07T11:28:00.529Z,13.82
2017-09-07T11:29:10.478Z,13.83
2017-09-07T11:30:20.945Z,13.82
2017-09-07T11:31:31.217Z,13.87
2017-09-07T11:32:41.174Z,13.89
2017-09-07T11:33:51.120Z,13.93
2017-09-07T11:35:01.074Z,13.93
2017-09-07T11:36:11.022Z,13.95
2017-09-07T11:37:21.294Z,13.98
2017-09-07T11:38:30.923Z,13.97
2017-09-07T11:39:41.194Z,13.95
2017-09-07T11:40:50.823Z,14
2017-09-07T11:42:00.772Z,14.05
2017-09-07T11:43:10.718Z,14.07
2017-09-07T12:12:55.887Z,14
2017-09-07T12:14:06.066Z,14.12
2017-09-07T12:15:16.347Z,14.16
2017-09-07T12:16:26.292Z,14.18
2017-09-07T12:17:36.556Z,14.08
2017-09-07T12:18:45.862Z,14.08
2017-09-07T12:19:56.129Z,14.12
2017-09-07T12:21:06.116Z,14.13
2017-09-07T12:22:16.393Z,14.07
2017-09-07T12:23:26.343Z,13.89
2017-09-07T12:24:36.618Z,13.91
2017-09-07T12:25:46.564Z,13.79
2017-09-07T12:26:56.509Z,13.73
2017-09-07T12:28:06.776Z,13.67
2017-09-07T12:29:16.404Z,13.75
2017-09-07T12:30:26.670Z,13.64
2017-09-07T12:31:36.614Z,13.7
2017-09-07T12:32:46.560Z,13.75
2017-09-07T12:33:56.511Z,13.82
2017-09-07T12:35:06.140Z,13.85
2017-09-07T12:36:16.412Z,13.85
2017-09-07T12:37:26.358Z,13.97
2017-09-07T12:38:36.337Z,14.03
2017-09-07T12:39:46.278Z,14.03
2017-09-07T12:40:56.222Z,14.12
2017-09-07T12:42:06.175Z,14.11
2017-09-07T12:43:16.478Z,14.13
2017-09-07T12:44:26.757Z,14.25
2017-09-07T12:45:37.024Z,14.31
2017-09-07T12:46:46.973Z,14.33
2017-09-07T12:47:56.917Z,14.37
2017-09-07T12:49:07.187Z,14.4
2017-09-07T12:50:17.455Z,14.37
2017-09-07T12:51:27.416Z,14.36
2017-09-07T12:52:36.719Z,14.45
2017-09-07T12:53:46.664Z,14.44
2017-09-07T12:54:56.607Z,14.44
2017-09-07T12:56:06.555Z,14.63
2017-09-07T12:57:16.510Z,14.52
2017-09-07T12:58:26.455Z,14.52
2017-09-07T12:59:36.078Z,14.48
2017-09-07T13:00:46.345Z,14.44
2017-09-07T13:01:55.980Z,14.49
2017-09-07T13:03:05.608Z,14.45
2017-09-07T13:04:15.557Z,14.51
2017-09-07T13:05:25.508Z,14.58
2017-09-07T13:06:35.780Z,14.56
2017-09-07T13:07:46.052Z,14.61
2017-09-07T13:08:56.322Z,14.56
2017-09-07T13:10:06.268Z,14.53
2017-09-07T13:11:16.542Z,14.56
2017-09-07T13:12:26.816Z,14.59
2017-09-07T13:13:36.767Z,14.53
2017-09-07T13:14:46.718Z,14.63
2017-09-07T13:15:56.667Z,14.59
2017-09-07T13:17:06.608Z,14.51
2017-09-07T13:18:16.872Z,14.52
2017-09-07T13:19:27.169Z,14.44
2017-09-07T13:20:37.116Z,14.37
2017-09-07T13:21:47.378Z,14.36
2017-09-07T13:22:57.004Z,14.18
2017-09-07T13:24:07.275Z,14.08
2017-09-07T13:25:17.546Z,14.13
2017-09-07T13:26:27.811Z,14.13
2017-09-07T13:27:37.436Z,14.05
2017-09-07T13:28:49.848Z,14.07
2017-09-07T13:30:00.117Z,14.18
2017-09-07T13:31:09.750Z,14.2
2017-09-07T13:32:20.026Z,14.16
2017-09-07T13:33:30.293Z,14.07
2017-09-07T13:34:40.244Z,14.05
2017-09-07T13:35:50.190Z,14.13
2017-09-07T13:37:00.138Z,14.18
2017-09-07T13:38:10.080Z,14.03
2017-09-07T13:39:20.026Z,14.03
2017-09-07T13:40:30.295Z,13.95
2017-09-07T13:41:40.239Z,14.05
2017-09-07T13:42:49.861Z,13.98
2017-09-07T13:44:00.131Z,13.86
2017-09-07T13:45:10.402Z,13.52
2017-09-07T13:46:20.671Z,13.36
2017-09-07T13:47:30.941Z,13.36
2017-09-07T13:48:40.887Z,13.33
2017-09-07T13:49:50.829Z,13.45
2017-09-07T13:51:01.104Z,13.49
2017-09-07T13:52:11.054Z,13.33
2017-09-07T13:53:20.683Z,13.3
2017-09-07T13:54:30.952Z,13.24
2017-09-07T13:55:40.902Z,13.28
2017-09-07T13:56:50.208Z,13.3
2017-09-07T13:58:00.477Z,13.17
2017-09-07T13:59:10.105Z,13.2
2017-09-07T14:00:20.383Z,13.19
2017-09-07T14:01:30.012Z,13.24
2017-09-07T14:02:40.276Z,13.23
2017-09-07T14:03:50.228Z,13.24
2017-09-07T14:05:00.178Z,13.3
2017-09-07T14:06:10.123Z,13.36
2017-09-07T14:07:20.388Z,13.45
2017-09-07T14:08:30.341Z,13.49
2017-09-07T14:09:40.283Z,13.57
2017-09-07T14:10:49.905Z,13.45
2017-09-07T14:12:00.183Z,13.45
2017-09-07T14:13:09.808Z,13.47
2017-09-07T14:14:20.078Z,13.47
2017-09-07T14:15:30.360Z,13.47
2017-09-07T14:16:40.629Z,13.47
2017-09-07T14:17:50.256Z,13.54
2017-09-07T14:19:00.523Z,13.58
2017-09-07T14:20:10.155Z,13.52
2017-09-07T14:21:20.103Z,13.54
2017-09-07T14:22:30.047Z,13.61
2017-09-07T14:23:40.328Z,13.54
2017-09-07T14:24:50.273Z,13.47
2017-09-07T14:26:00.542Z,13.46
2017-09-07T14:27:10.164Z,13.36
2017-09-07T14:28:20.429Z,13.47
2017-09-07T14:29:30.380Z,13.5
2017-09-07T14:30:40.648Z,13.49
2017-09-07T14:31:50.923Z,13.5
2017-09-07T14:33:01.196Z,13.52
2017-09-07T14:34:11.467Z,13.37
2017-09-07T14:35:21.413Z,13.26
2017-09-07T14:36:31.357Z,13.13
2017-09-07T14:37:40.979Z,13.13
2017-09-07T14:38:50.924Z,13.21
2017-09-07T14:40:00.546Z,13.3
2017-09-07T14:41:10.168Z,13.31
2017-09-07T14:42:20.110Z,13.31
2017-09-07T14:43:30.059Z,13.23
2017-09-07T14:44:40.329Z,13.24
2017-09-07T14:45:50.276Z,13.33
2017-09-07T14:47:00.223Z,13.24
2017-09-07T14:48:10.497Z,13.24
2017-09-07T14:49:20.450Z,13.31
2017-09-07T14:50:30.404Z,13.26
2017-09-07T14:51:40.672Z,13.36
2017-09-07T14:52:50.946Z,13.47
2017-09-07T14:54:01.211Z,13.52
2017-09-07T14:55:11.160Z,13.54
2017-09-07T14:56:21.104Z,13.54
2017-09-07T14:57:31.373Z,13.54
2017-09-07T14:58:41.001Z,13.46
2017-09-07T14:59:50.947Z,13.4
2017-09-07T15:01:00.892Z,13.43
2017-09-07T15:02:11.174Z,13.47
2017-09-07T15:03:21.123Z,13.33
2017-09-07T15:04:31.385Z,13.33
2017-09-07T15:05:41.648Z,13.36
2017-09-07T15:06:51.916Z,13.33
2017-09-07T15:08:01.542Z,13.36
2017-09-07T15:09:11.850Z,13.46
2017-09-07T15:10:21.798Z,13.47
2017-09-07T15:11:31.746Z,13.5
2017-09-07T15:12:42.012Z,13.5
2017-09-07T15:13:52.284Z,13.62
2017-09-07T15:15:02.547Z,13.76
2017-09-07T15:16:12.494Z,13.79
2017-09-07T15:17:21.799Z,13.78
2017-09-07T15:18:31.750Z,13.87
2017-09-07T15:19:41.373Z,13.78
2017-09-07T15:20:51.641Z,13.8
2017-09-07T15:22:01.926Z,13.86
2017-09-07T15:23:12.195Z,13.86
2017-09-07T15:24:22.149Z,13.82
2017-09-07T15:25:31.784Z,13.79
2017-09-07T15:26:41.735Z,13.58
2017-09-07T15:27:52.006Z,13.43
2017-09-07T15:29:02.279Z,13.58
2017-09-07T15:30:11.918Z,13.57
2017-09-07T15:31:22.191Z,13.6
2017-09-07T15:32:32.134Z,13.52
2017-09-07T15:33:42.408Z,13.47
2017-09-07T15:34:52.363Z,13.52
2017-09-07T15:36:02.317Z,13.49